Time;durP1;ratioP1;P1;durP2;ratioP2;P2;SDS_P1;SDS_P2;PMS_P1;PMS_P2;Temp;Humidity;BMP_temperature;BMP_pressure;BME280_temperature;BME280_humidity;BME280_pressure;Samples;Min_cycle;Max_cycle;Signal;HPM_P1;HPM_P2
2021/03/15 00:00:59;;;;;;;6.00;4.00;;;;;;;4.51;81.22;100307.25;5058216;28;20037;-79
2021/03/15 00:03:26;;;;;;;6.38;4.35;;;;;;;4.50;81.42;100301.16;5052200;28;20144;-80
2021/03/15 00:05:51;;;;;;;6.97;4.50;;;;;;;4.46;81.56;100311.03;5046579;28;20530;-80
2021/03/15 00:08:17;;;;;;;6.85;4.35;;;;;;;4.44;81.89;100309.50;5046804;28;20033;-80
2021/03/15 00:10:42;;;;;;;7.97;4.70;;;;;;;4.49;81.63;100306.53;5050948;28;20025;-80
2021/03/15 00:13:08;;;;;;;5.68;4.00;;;;;;;4.44;81.67;100296.41;5044096;28;20067;-80
2021/03/15 00:15:34;;;;;;;6.25;4.60;;;;;;;4.45;81.86;100305.91;5042543;28;20505;-80
2021/03/15 00:18:00;;;;;;;9.73;4.30;;;;;;;4.42;81.69;100301.75;5055272;28;20040;-79
2021/03/15 00:20:26;;;;;;;7.40;4.50;;;;;;;4.49;81.45;100304.72;5056757;28;20033;-79
2021/03/15 00:22:51;;;;;;;7.13;5.00;;;;;;;4.51;81.17;100302.84;5045978;28;20485;-80
2021/03/15 00:25:18;;;;;;;7.45;4.07;;;;;;;4.46;81.62;100297.94;5054556;28;20061;-79
2021/03/15 00:27:44;;;;;;;5.78;3.70;;;;;;;4.44;81.81;100293.78;5051053;28;20026;-79
2021/03/15 00:30:12;;;;;;;6.70;4.70;;;;;;;4.42;81.70;100293.91;5053912;28;20091;-79
2021/03/15 00:32:38;;;;;;;7.68;4.78;;;;;;;4.46;81.37;100290.09;5051198;28;20025;-79
2021/03/15 00:35:05;;;;;;;5.38;3.97;;;;;;;4.42;81.45;100280.81;5057620;28;20067;-79
2021/03/15 00:37:31;;;;;;;9.48;5.30;;;;;;;4.42;81.22;100286.03;5041940;28;20033;-79
2021/03/15 00:39:56;;;;;;;8.57;4.40;;;;;;;4.36;81.42;100281.28;5048430;28;20107;-79
2021/03/15 00:42:21;;;;;;;7.13;4.22;;;;;;;4.34;81.54;100279.72;5051596;28;20079;-79
2021/03/15 00:44:46;;;;;;;8.13;4.72;;;;;;;4.29;81.72;100277.47;5046474;28;20033;-79
2021/03/15 00:47:12;;;;;;;6.68;4.07;;;;;;;4.23;81.77;100273.53;5036783;28;20414;-79
2021/03/15 00:49:37;;;;;;;7.68;4.10;;;;;;;4.22;81.75;100271.03;5042081;28;20490;-79
2021/03/15 00:52:03;;;;;;;5.18;3.88;;;;;;;4.18;82.08;100282.69;5051503;28;20033;-79
2021/03/15 00:54:28;;;;;;;7.65;4.40;;;;;;;4.20;81.73;100291.25;5056445;28;20067;-79
2021/03/15 00:56:53;;;;;;;5.78;3.83;;;;;;;4.20;82.10;100284.25;5049600;28;20030;-80
2021/03/15 00:59:18;;;;;;;5.53;4.30;;;;;;;4.24;81.89;100297.91;5048067;28;20044;-79
2021/03/15 01:01:44;;;;;;;7.68;4.30;;;;;;;4.24;82.00;100303.16;5045497;28;20057;-79
2021/03/15 01:04:12;;;;;;;6.95;3.60;;;;;;;4.30;82.07;100297.47;5052013;28;20068;-79
2021/03/15 01:06:38;;;;;;;8.68;5.05;;;;;;;4.33;82.12;100299.00;5050883;28;20031;-79
2021/03/15 01:09:04;;;;;;;6.38;4.18;;;;;;;4.31;81.98;100295.66;5054189;28;20037;-79
2021/03/15 01:11:29;;;;;;;6.43;4.10;;;;;;;4.34;82.37;100284.94;5054508;28;20100;-79
2021/03/15 01:13:54;;;;;;;6.00;4.18;;;;;;;4.38;81.72;100289.00;5054167;28;20115;-79
2021/03/15 01:16:20;;;;;;;9.02;4.68;;;;;;;4.42;81.88;100287.84;5055443;28;20028;-79
2021/03/15 01:18:45;;;;;;;6.95;4.63;;;;;;;4.39;82.25;100286.28;5048781;28;20097;-79
2021/03/15 01:21:12;;;;;;;7.82;4.55;;;;;;;4.42;82.11;100277.38;5052895;28;20075;-79
2021/03/15 01:23:38;;;;;;;7.22;4.50;;;;;;;4.43;82.23;100274.63;5051634;28;20037;-79
2021/03/15 01:26:04;;;;;;;8.77;4.28;;;;;;;4.35;82.97;100266.53;5045717;28;20033;-79
2021/03/15 01:28:29;;;;;;;5.60;3.90;;;;;;;4.35;82.45;100256.06;5045102;28;20059;-79
2021/03/15 01:30:55;;;;;;;6.63;4.07;;;;;;;4.31;82.23;100254.63;5044556;28;20557;-79
2021/03/15 01:33:20;;;;;;;6.68;4.80;;;;;;;4.39;81.81;100251.44;5041242;28;20557;-79
2021/03/15 01:35:45;;;;;;;9.02;4.53;;;;;;;4.36;81.93;100246.41;5042737;28;20022;-79
2021/03/15 01:38:11;;;;;;;7.35;4.30;;;;;;;4.38;81.93;100244.50;5040372;28;20097;-79
2021/03/15 01:40:38;;;;;;;8.25;4.45;;;;;;;4.33;82.14;100237.00;5055640;28;20029;-79
2021/03/15 01:43:04;;;;;;;9.18;4.80;;;;;;;4.37;81.66;100225.34;5055184;28;20033;-79
2021/03/15 01:45:31;;;;;;;6.40;4.18;;;;;;;4.32;81.71;100221.44;5047809;28;20098;-79
2021/03/15 01:47:56;;;;;;;8.25;4.97;;;;;;;4.38;81.23;100215.72;5049202;28;20029;-79
2021/03/15 01:50:22;;;;;;;7.47;4.97;;;;;;;4.35;81.10;100208.09;5053709;28;20052;-79
2021/03/15 01:52:50;;;;;;;8.82;4.93;;;;;;;4.35;81.31;100211.56;5056288;28;20597;-79
2021/03/15 01:55:16;;;;;;;7.45;4.43;;;;;;;4.23;81.50;100197.63;5048406;28;20405;-79
2021/03/15 01:57:42;;;;;;;8.15;5.03;;;;;;;4.27;81.50;100195.63;5052530;28;20410;-79
2021/03/15 02:00:10;;;;;;;6.97;4.07;;;;;;;4.22;81.44;100187.31;5039951;28;20250;-79
2021/03/15 02:02:37;;;;;;;5.63;4.20;;;;;;;4.19;81.70;100177.06;5046784;28;20446;-79
2021/03/15 02:05:04;;;;;;;6.55;4.32;;;;;;;4.17;81.60;100179.81;5051386;28;20497;-79
2021/03/15 02:07:30;;;;;;;6.88;4.05;;;;;;;4.17;81.78;100171.09;5044347;28;20036;-79
2021/03/15 02:09:55;;;;;;;6.13;4.20;;;;;;;4.16;81.81;100161.59;5050947;28;20140;-79
2021/03/15 02:12:59;;;;;;;7.93;4.00;;;;;;;4.09;82.05;100152.56;5052701;28;20657;-79
2021/03/15 02:15:37;;;;;;;8.07;4.10;;;;;;;4.07;82.12;100154.47;5052458;28;20075;-79
2021/03/15 02:18:05;;;;;;;8.70;4.97;;;;;;;4.10;81.58;100142.00;5047863;28;20063;-79
2021/03/15 02:20:50;;;;;;;8.20;4.75;;;;;;;4.12;81.65;100136.63;5052044;28;20049;-79
2021/03/15 02:23:26;;;;;;;7.35;3.95;;;;;;;4.07;81.60;100128.28;5050798;28;20025;-79
2021/03/15 02:26:10;;;;;;;8.25;4.07;;;;;;;4.05;81.87;100133.63;5054996;28;20102;-79
2021/03/15 02:29:12;;;;;;;6.55;4.55;;;;;;;4.08;81.45;100127.34;5052855;28;20047;-79
2021/03/15 02:32:06;;;;;;;10.35;4.55;;;;;;;4.08;81.39;100122.13;5044085;28;20096;-79
2021/03/15 02:34:49;;;;;;;8.02;4.25;;;;;;;4.08;81.17;100127.34;5039549;28;20061;-79
2021/03/15 02:37:17;;;;;;;7.00;4.65;;;;;;;4.08;81.22;100116.91;5035156;28;20049;-79
2021/03/15 02:39:48;;;;;;;7.93;4.57;;;;;;;4.06;81.15;100111.78;5054329;28;20060;-79
2021/03/15 02:42:17;;;;;;;9.85;4.05;;;;;;;4.03;81.40;100115.47;5042021;28;20114;-79
2021/03/15 02:44:49;;;;;;;10.60;4.60;;;;;;;4.07;81.22;100108.19;5050580;28;20056;-79
2021/03/15 02:47:20;;;;;;;8.25;4.82;;;;;;;4.11;81.19;100116.66;5043461;28;20120;-79
2021/03/15 02:49:48;;;;;;;10.30;4.55;;;;;;;4.07;81.50;100112.59;5050830;28;20033;-79
2021/03/15 02:52:16;;;;;;;7.65;4.38;;;;;;;4.12;81.22;100108.66;5053780;28;20040;-79
2021/03/15 02:54:45;;;;;;;8.30;4.50;;;;;;;4.09;81.72;100102.84;5053675;28;20044;-79
2021/03/15 02:57:15;;;;;;;8.65;4.80;;;;;;;4.12;81.63;100107.84;5052068;28;20030;-78
2021/03/15 02:59:42;;;;;;;7.75;4.68;;;;;;;4.03;81.89;100101.56;5051176;28;20053;-79
2021/03/15 03:02:07;;;;;;;9.57;4.90;;;;;;;4.04;81.75;100103.22;5052231;28;20570;-79
2021/03/15 03:04:33;;;;;;;8.48;4.75;;;;;;;4.06;81.73;100101.31;5049387;28;20045;-80
2021/03/15 03:07:01;;;;;;;8.93;5.20;;;;;;;4.09;81.45;100105.47;5039266;28;20484;-80
2021/03/15 03:09:28;;;;;;;11.93;5.88;;;;;;;4.04;82.02;100103.22;5052968;28;20041;-80
2021/03/15 03:11:54;;;;;;;11.68;5.32;;;;;;;4.07;81.77;100094.28;5054537;28;20490;-80
2021/03/15 03:14:21;;;;;;;10.82;5.47;;;;;;;4.05;82.06;100089.16;5052267;28;20402;-79
2021/03/15 03:16:49;;;;;;;10.05;4.97;;;;;;;4.06;82.19;100088.22;5053077;28;20462;-80
2021/03/15 03:19:18;;;;;;;13.43;5.13;;;;;;;4.03;82.53;100091.91;5052193;28;20124;-80
2021/03/15 03:21:45;;;;;;;12.07;5.45;;;;;;;3.96;82.67;100082.88;5052159;28;20032;-80
2021/03/15 03:24:13;;;;;;;14.10;5.03;;;;;;;3.91;83.48;100069.34;5042950;28;20399;-80
2021/03/15 03:26:39;;;;;;;11.80;5.10;;;;;;;3.89;83.72;100066.00;5042126;28;20033;-80
2021/03/15 03:29:08;;;;;;;12.05;5.13;;;;;;;3.81;84.13;100058.75;5044166;28;20032;-79
2021/03/15 03:31:38;;;;;;;8.25;4.40;;;;;;;3.76;85.29;100039.97;5054091;28;20065;-80
2021/03/15 03:34:04;;;;;;;12.05;5.15;;;;;;;3.76;85.13;100028.69;5045575;28;20063;-80
2021/03/15 03:36:30;;;;;;;13.45;5.00;;;;;;;3.71;85.20;100030.81;5050958;28;20037;-80
2021/03/15 03:38:56;;;;;;;9.93;4.95;;;;;;;3.74;85.32;100028.81;5047211;28;20364;-79
2021/03/15 03:41:22;;;;;;;8.85;5.38;;;;;;;3.76;85.24;100010.38;5051394;28;20030;-80
2021/03/15 03:43:47;;;;;;;13.18;5.85;;;;;;;3.72;85.87;100006.31;5053135;28;20513;-80
2021/03/15 03:46:14;;;;;;;9.48;4.22;;;;;;;3.77;85.42;100004.22;5040505;28;20362;-80
2021/03/15 03:48:40;;;;;;;11.88;4.82;;;;;;;3.81;85.16;100003.00;5046515;28;20036;-80
2021/03/15 03:51:05;;;;;;;9.00;4.18;;;;;;;3.81;85.72;100010.84;5045563;28;20041;-80
2021/03/15 03:53:51;;;;;;;15.45;4.53;;;;;;;3.82;85.20;100007.28;5053309;28;20048;-79
2021/03/15 03:56:24;;;;;;;9.00;4.20;;;;;;;3.79;85.85;100005.75;5046273;28;20433;-79
2021/03/15 03:58:53;;;;;;;12.25;5.30;;;;;;;3.80;85.80;100009.19;5053084;28;20040;-79
2021/03/15 04:01:23;;;;;;;9.10;4.50;;;;;;;3.84;85.34;100010.63;5049686;28;20037;-79
2021/03/15 04:03:53;;;;;;;10.07;4.90;;;;;;;3.78;85.63;100004.06;5055256;28;20036;-79
2021/03/15 04:06:20;;;;;;;11.68;4.10;;;;;;;3.77;85.57;100005.03;5053975;28;20037;-79
2021/03/15 04:08:54;;;;;;;12.18;4.60;;;;;;;3.85;85.44;100003.59;5039755;28;20037;-79
2021/03/15 04:11:22;;;;;;;12.93;5.97;;;;;;;3.83;85.40;100011.56;5034615;28;20034;-79
2021/03/15 04:13:49;;;;;;;10.82;5.07;;;;;;;3.83;85.49;100011.56;5040742;28;20029;-79
2021/03/15 04:16:16;;;;;;;11.15;4.95;;;;;;;3.80;85.46;100007.41;5054989;28;20118;-79
2021/03/15 04:18:53;;;;;;;9.32;5.28;;;;;;;3.85;84.91;100006.22;5050902;28;20037;-79
2021/03/15 04:21:22;;;;;;;10.63;4.60;;;;;;;3.79;85.68;100004.91;5055601;28;20029;-79
2021/03/15 04:23:49;;;;;;;11.15;4.60;;;;;;;3.73;85.91;99998.38;5055026;28;20035;-79
2021/03/15 04:26:14;;;;;;;11.65;5.38;;;;;;;3.77;86.22;100001.59;5055148;28;20065;-79
2021/03/15 04:28:41;;;;;;;15.32;6.20;;;;;;;3.78;86.33;99996.22;5052722;28;20367;-79
2021/03/15 04:31:08;;;;;;;12.60;5.45;;;;;;;3.76;86.44;99981.59;5051917;28;20040;-80
2021/03/15 04:33:36;;;;;;;15.57;6.50;;;;;;;3.74;86.73;99976.53;5054129;28;20529;-80
2021/03/15 04:36:03;;;;;;;13.73;5.40;;;;;;;3.68;87.46;99976.16;5045960;28;20083;-80
2021/03/15 04:38:29;;;;;;;22.95;6.90;;;;;;;3.72;87.13;99960.13;5048576;28;21127;-81
2021/03/15 04:40:54;;;;;;;12.23;6.05;;;;;;;3.68;87.30;99947.41;5042358;28;20040;-80
2021/03/15 04:43:21;;;;;;;9.98;4.95;;;;;;;3.63;87.78;99944.34;5059083;28;20037;-79
2021/03/15 04:45:49;;;;;;;9.85;5.65;;;;;;;3.60;88.07;99946.22;5056355;28;20029;-80
2021/03/15 04:48:18;;;;;;;16.38;6.38;;;;;;;3.66;87.69;99939.69;5047046;28;20071;-79
2021/03/15 04:50:44;;;;;;;13.68;5.95;;;;;;;3.66;87.78;99954.53;5052184;28;20056;-80
2021/03/15 04:53:11;;;;;;;13.10;6.15;;;;;;;3.69;88.08;99955.09;5057256;28;20037;-80
2021/03/15 04:55:40;;;;;;;16.48;6.35;;;;;;;3.70;87.79;99950.72;5048966;28;20033;-80
2021/03/15 04:58:08;;;;;;;12.10;5.82;;;;;;;3.67;88.43;99937.88;5048114;28;20045;-80
2021/03/15 05:00:34;;;;;;;18.20;6.15;;;;;;;3.69;88.08;99938.59;5053381;28;20095;-80
2021/03/15 05:03:05;;;;;;;15.90;6.22;;;;;;;3.71;88.21;99923.63;5054273;28;20036;-80
2021/03/15 05:05:31;;;;;;;11.23;4.78;;;;;;;3.72;88.26;99925.28;5053510;28;20068;-79
2021/03/15 05:07:57;;;;;;;14.07;6.32;;;;;;;3.74;88.24;99915.53;5054984;28;20391;-79
2021/03/15 05:10:23;;;;;;;13.63;5.85;;;;;;;3.70;88.31;99920.19;5039600;28;20284;-79
2021/03/15 05:12:49;;;;;;;16.95;5.78;;;;;;;3.74;88.38;99915.53;5050453;28;20398;-79
2021/03/15 05:15:14;;;;;;;10.98;5.18;;;;;;;3.69;88.54;99913.28;5049471;28;20042;-79
2021/03/15 05:17:41;;;;;;;10.52;5.28;;;;;;;3.72;88.36;99923.50;5054202;28;20032;-79
2021/03/15 05:20:10;;;;;;;12.98;6.25;;;;;;;3.74;88.22;99918.13;5040599;28;20056;-79
2021/03/15 05:22:37;;;;;;;13.88;5.32;;;;;;;3.72;88.82;99914.81;5051759;28;20040;-80
2021/03/15 05:25:06;;;;;;;12.20;5.40;;;;;;;3.74;88.46;99907.69;5051519;28;20056;-79
2021/03/15 05:27:32;;;;;;;15.55;5.57;;;;;;;3.75;88.54;99906.75;5054319;28;20052;-80
2021/03/15 05:30:02;;;;;;;20.65;6.18;;;;;;;3.75;88.42;99911.97;5044892;28;20033;-79
2021/03/15 05:32:31;;;;;;;16.48;5.88;;;;;;;3.80;88.43;99904.59;5044541;28;20044;-79
2021/03/15 05:34:57;;;;;;;14.20;5.32;;;;;;;3.78;88.40;99903.88;5045536;28;20490;-79
2021/03/15 05:37:23;;;;;;;12.85;5.80;;;;;;;3.77;88.63;99897.00;5054607;28;20043;-80
2021/03/15 05:39:50;;;;;;;13.70;6.43;;;;;;;3.81;88.45;99899.25;5051618;28;20033;-80
2021/03/15 05:42:41;;;;;;;16.38;6.15;;;;;;;3.83;88.36;99906.94;5056114;28;20064;-80
2021/03/15 05:45:44;;;;;;;12.60;5.97;;;;;;;3.83;88.62;99891.25;5051076;28;20037;-80
2021/03/15 05:48:20;;;;;;;12.15;6.00;;;;;;;3.82;88.66;99902.69;5043547;28;20037;-79
2021/03/15 05:51:06;;;;;;;16.55;6.45;;;;;;;3.84;88.28;99900.78;5048073;28;20060;-79
2021/03/15 05:54:11;;;;;;;15.77;6.38;;;;;;;3.85;88.28;99886.72;5049596;28;20044;-79
2021/03/15 05:57:05;;;;;;;14.50;6.57;;;;;;;3.86;88.00;99883.16;5047967;28;20056;-79
2021/03/15 06:00:00;;;;;;;9.85;5.18;;;;;;;3.82;87.89;99884.38;5034183;28;20033;-80
2021/03/15 06:03:00;;;;;;;15.15;5.70;;;;;;;3.83;87.81;99883.41;5044416;28;20041;-79
2021/03/15 06:05:30;;;;;;;11.07;5.20;;;;;;;3.79;87.94;99881.97;5045105;28;20380;-79
2021/03/15 06:08:14;;;;;;;12.32;5.35;;;;;;;3.83;87.91;99886.03;5041500;28;20030;-79
2021/03/15 06:10:48;;;;;;;9.93;5.05;;;;;;;3.77;88.40;99886.53;5053377;28;20025;-79
2021/03/15 06:13:15;;;;;;;7.25;4.53;;;;;;;3.76;88.43;99883.06;5051871;28;20041;-79
2021/03/15 06:15:45;;;;;;;13.95;5.35;;;;;;;3.79;88.45;99890.69;5053127;28;20120;-80
2021/03/15 06:18:13;;;;;;;10.03;5.20;;;;;;;3.78;88.63;99886.38;5052530;28;20138;-82
2021/03/15 06:20:41;;;;;;;6.90;4.32;;;;;;;3.80;88.47;99887.09;5036299;28;20431;-82
2021/03/15 06:23:06;;;;;;;7.97;4.60;;;;;;;3.85;88.33;99891.13;5038249;28;20566;-80
2021/03/15 06:25:34;;;;;;;9.40;4.57;;;;;;;3.84;88.28;99890.31;5038578;28;20076;-81
2021/03/15 06:28:00;;;;;;;9.20;4.78;;;;;;;3.83;88.21;99886.84;5051381;28;20029;-80
2021/03/15 06:30:26;;;;;;;7.20;3.95;;;;;;;3.83;88.10;99888.63;5040400;28;20045;-81
2021/03/15 06:32:55;;;;;;;6.50;3.22;;;;;;;3.74;89.02;99892.00;5039635;28;20055;-81
2021/03/15 06:35:24;;;;;;;7.25;3.40;;;;;;;3.70;89.45;99898.44;5050783;28;20029;-81
2021/03/15 06:37:50;;;;;;;8.13;3.55;;;;;;;3.76;88.74;99898.75;5052624;28;20025;-82
2021/03/15 06:40:17;;;;;;;5.18;3.13;;;;;;;3.59;89.42;99900.09;5051690;28;20126;-81
2021/03/15 06:42:43;;;;;;;7.43;3.63;;;;;;;3.47;90.23;99900.25;5052145;28;20040;-82
2021/03/15 06:45:13;;;;;;;5.07;3.28;;;;;;;3.47;90.03;99911.53;5049251;28;20029;-82
2021/03/15 06:47:40;;;;;;;4.45;2.53;;;;;;;3.45;89.06;99923.91;5047043;28;20124;-81
2021/03/15 06:50:09;;;;;;;4.00;1.63;;;;;;;3.34;89.44;99918.72;5047581;28;20222;-80
2021/03/15 06:52:53;;;;;;;4.82;2.40;;;;;;;3.30;89.11;99918.09;5041794;28;20033;-81
2021/03/15 06:55:23;;;;;;;3.25;1.88;;;;;;;3.32;89.15;99918.00;5056695;28;20029;-81
2021/03/15 06:57:50;;;;;;;6.40;2.60;;;;;;;3.42;87.82;99912.88;5047261;28;20506;-81
2021/03/15 07:00:20;;;;;;;3.55;2.33;;;;;;;3.35;87.92;99915.13;5050491;28;20534;-81
2021/03/15 07:02:55;;;;;;;3.57;2.13;;;;;;;3.33;87.73;99928.31;5052678;28;20041;-80
2021/03/15 07:05:21;;;;;;;4.03;1.90;;;;;;;3.25;87.91;99912.41;5051137;28;20116;-80
2021/03/15 07:07:55;;;;;;;4.93;2.00;;;;;;;3.25;87.91;99914.19;5042793;28;20466;-81
2021/03/15 07:10:25;;;;;;;3.40;1.80;;;;;;;3.17;88.51;99918.25;5045816;28;20052;-80
2021/03/15 07:13:07;;;;;;;2.60;1.70;;;;;;;3.23;88.11;99916.09;5038861;28;20038;-81
2021/03/15 07:15:33;;;;;;;2.45;1.50;;;;;;;3.23;88.18;99929.16;5051214;28;20041;-80
2021/03/15 07:18:16;;;;;;;2.40;1.60;;;;;;;3.26;88.47;99908.81;5056816;28;20033;-81
2021/03/15 07:20:49;;;;;;;3.40;1.70;;;;;;;3.28;88.56;99911.34;5042130;28;20044;-80
2021/03/15 07:23:15;;;;;;;3.53;1.98;;;;;;;3.25;88.70;99908.97;5050961;28;20033;-80
2021/03/15 07:25:41;;;;;;;3.92;2.05;;;;;;;3.31;88.48;99917.16;5054547;28;20392;-80
2021/03/15 07:28:07;;;;;;;2.80;1.63;;;;;;;3.30;88.62;99912.88;5049553;28;20069;-79
2021/03/15 07:30:42;;;;;;;4.30;1.90;;;;;;;3.32;88.69;99916.19;5046020;28;20044;-80
2021/03/15 07:33:24;;;;;;;4.82;1.80;;;;;;;3.34;88.80;99921.31;5046969;28;20402;-80
2021/03/15 07:35:50;;;;;;;2.55;1.45;;;;;;;3.39;88.94;99924.41;5049261;28;20521;-80
2021/03/15 07:38:15;;;;;;;4.40;1.73;;;;;;;3.48;88.66;99925.44;5055872;28;20037;-80
2021/03/15 07:40:42;;;;;;;4.55;2.25;;;;;;;3.47;88.61;99922.00;5045183;28;20055;-80
2021/03/15 07:43:12;;;;;;;4.07;1.88;;;;;;;3.48;88.94;99926.28;5056056;28;20395;-80
2021/03/15 07:45:46;;;;;;;3.47;2.00;;;;;;;3.50;88.75;99926.16;5055367;28;20402;-80
2021/03/15 07:48:13;;;;;;;3.15;1.80;;;;;;;3.51;88.88;99920.00;5055084;28;20410;-80
2021/03/15 07:50:40;;;;;;;3.22;2.00;;;;;;;3.56;88.72;99923.06;5040644;28;20040;-81
2021/03/15 07:53:06;;;;;;;7.25;2.15;;;;;;;3.61;88.70;99923.53;5050927;28;20108;-80
2021/03/15 07:55:40;;;;;;;3.28;2.30;;;;;;;3.69;88.42;99917.69;5040909;28;20030;-81
2021/03/15 07:58:27;;;;;;;3.45;1.80;;;;;;;3.60;89.78;99922.69;5036399;28;20065;-80
2021/03/15 08:00:54;;;;;;;5.85;2.08;;;;;;;3.74;89.00;99931.22;5053145;28;20048;-81
2021/03/15 08:03:23;;;;;;;4.30;2.50;;;;;;;3.76;88.76;99940.59;5045892;28;20040;-81
2021/03/15 08:05:49;;;;;;;3.15;1.80;;;;;;;3.81;89.20;99928.00;5051212;28;20036;-81
2021/03/15 08:08:15;;;;;;;7.78;2.10;;;;;;;3.92;88.65;99923.69;5046109;28;20120;-80
2021/03/15 08:10:42;;;;;;;3.88;2.00;;;;;;;3.91;88.53;99930.72;5055113;28;20063;-81
2021/03/15 08:13:10;;;;;;;4.85;2.40;;;;;;;3.96;88.23;99939.00;5053576;28;20488;-80
2021/03/15 08:15:36;;;;;;;3.83;2.33;;;;;;;3.96;88.25;99938.19;5034342;28;20083;-81
2021/03/15 08:18:02;;;;;;;3.95;2.40;;;;;;;3.97;88.00;99942.44;5044797;28;20033;-81
2021/03/15 08:20:28;;;;;;;3.45;2.00;;;;;;;3.91;88.66;99937.69;5043945;28;20052;-81
2021/03/15 08:22:58;;;;;;;5.05;2.55;;;;;;;3.98;88.41;99937.09;5051035;28;20029;-81
2021/03/15 08:25:24;;;;;;;4.35;2.50;;;;;;;4.02;88.33;99930.66;5055440;28;20380;-80
2021/03/15 08:27:51;;;;;;;4.28;2.13;;;;;;;4.04;87.99;99935.78;5052518;28;20052;-81
2021/03/15 08:30:27;;;;;;;2.88;2.10;;;;;;;4.07;88.06;99942.53;5054119;28;20059;-80
2021/03/15 08:32:53;;;;;;;4.55;2.35;;;;;;;4.03;88.24;99942.78;5053400;28;20025;-81
2021/03/15 08:35:19;;;;;;;3.63;2.13;;;;;;;4.01;88.85;99938.66;5054640;28;20174;-81
2021/03/15 08:37:47;;;;;;;3.97;2.22;;;;;;;4.10;88.33;99948.38;5053082;28;20033;-81
2021/03/15 08:40:13;;;;;;;4.45;2.40;;;;;;;4.09;88.76;99945.88;5047569;28;20041;-81
2021/03/15 08:42:38;;;;;;;4.25;2.85;;;;;;;4.18;88.37;99951.19;5042608;28;20041;-81
2021/03/15 08:45:27;;;;;;;5.28;2.33;;;;;;;4.25;88.17;99941.88;5040058;28;20083;-81
2021/03/15 08:47:53;;;;;;;3.22;2.15;;;;;;;4.27;87.90;99947.00;5049447;28;20029;-81
2021/03/15 08:50:34;;;;;;;4.35;2.30;;;;;;;4.32;87.76;99952.69;5046798;28;20079;-81
2021/03/15 08:52:59;;;;;;;3.15;1.88;;;;;;;4.21;89.16;99952.72;5047294;28;20426;-81
2021/03/15 08:55:47;;;;;;;2.97;1.60;;;;;;;4.24;89.01;99960.31;5046367;28;20117;-82
2021/03/15 08:58:30;;;;;;;3.00;2.15;;;;;;;4.31;88.42;99952.78;5034998;28;20106;-81
2021/03/15 09:00:56;;;;;;;3.78;2.40;;;;;;;4.35;88.12;99956.81;5051955;28;20128;-80
2021/03/15 09:03:59;;;;;;;3.08;1.90;;;;;;;4.34;88.55;99958.63;5044982;28;20053;-80
2021/03/15 09:06:36;;;;;;;3.00;1.70;;;;;;;4.33;88.91;99964.78;5042989;28;20478;-81
2021/03/15 09:09:09;;;;;;;3.33;2.35;;;;;;;4.43;88.14;99959.63;5053338;28;20048;-82
2021/03/15 09:11:35;;;;;;;2.83;2.03;;;;;;;4.50;87.85;99967.81;5036703;28;20068;-82
2021/03/15 09:14:15;;;;;;;2.95;1.70;;;;;;;4.49;88.35;99968.78;5048109;28;20037;-81
2021/03/15 09:16:58;;;;;;;3.70;2.00;;;;;;;4.56;87.94;99968.16;5033996;28;20049;-81
2021/03/15 09:19:36;;;;;;;3.05;1.73;;;;;;;4.49;88.06;99976.63;5052798;28;20143;-82
2021/03/15 09:22:03;;;;;;;4.10;1.60;;;;;;;4.50;88.43;99983.53;5051457;28;20563;-82
2021/03/15 09:24:41;;;;;;;1.90;1.30;;;;;;;4.50;90.06;99978.28;5052885;28;20491;-81
2021/03/15 09:27:07;;;;;;;4.50;1.73;;;;;;;4.58;88.76;99986.34;5060377;28;20037;-82
2021/03/15 09:29:36;;;;;;;3.08;1.63;;;;;;;4.62;88.19;99990.38;5052207;28;20219;-82
2021/03/15 09:32:06;;;;;;;2.50;1.50;;;;;;;4.60;88.48;99990.50;5045754;28;20041;-82
2021/03/15 09:34:32;;;;;;;1.80;1.23;;;;;;;4.55;89.98;99990.03;5042365;28;20041;-81
2021/03/15 09:36:58;;;;;;;2.53;1.70;;;;;;;4.52;91.35;99986.84;5044226;28;20055;-81
2021/03/15 09:39:28;;;;;;;2.50;1.70;;;;;;;4.50;92.18;99996.63;5034280;28;20109;-82
2021/03/15 09:41:54;;;;;;;2.20;1.45;;;;;;;4.54;91.95;100005.88;5050574;28;20037;-82
2021/03/15 09:44:24;;;;;;;1.92;1.20;;;;;;;4.70;90.96;100001.06;5043199;28;20095;-82
2021/03/15 09:46:52;;;;;;;2.93;1.97;;;;;;;4.84;90.13;100003.34;5037836;28;20114;-81
2021/03/15 09:49:38;;;;;;;2.80;1.85;;;;;;;4.97;90.70;100004.94;5048842;28;20036;-82
2021/03/15 09:52:14;;;;;;;3.20;2.13;;;;;;;5.06;91.37;100012.03;5041823;28;20099;-82
2021/03/15 09:54:42;;;;;;;3.70;1.90;;;;;;;5.19;89.96;100015.28;5035483;28;20034;-82
2021/03/15 09:57:07;;;;;;;3.97;1.80;;;;;;;5.40;90.95;100022.28;5050938;28;20052;-81
2021/03/15 09:59:33;;;;;;;4.15;2.30;;;;;;;5.56;90.38;100016.56;5048753;28;20068;-82
2021/03/15 10:01:58;;;;;;;3.50;2.30;;;;;;;5.74;90.47;100022.81;5042656;28;20462;-81
2021/03/15 10:04:33;;;;;;;3.78;2.30;;;;;;;5.86;88.88;100019.13;5050727;28;20037;-82
2021/03/15 10:06:59;;;;;;;2.92;1.73;;;;;;;6.05;87.31;100021.00;5045565;28;20399;-81
2021/03/15 10:09:24;;;;;;;2.50;1.70;;;;;;;6.06;86.95;100021.88;5047796;28;20116;-82
2021/03/15 10:11:50;;;;;;;2.10;1.30;;;;;;;6.22;84.95;100031.81;5048091;28;20132;-82
2021/03/15 10:14:15;;;;;;;2.67;1.80;;;;;;;6.45;85.67;100027.16;5039392;28;20041;-82
2021/03/15 10:16:59;;;;;;;1.17;1.00;;;;;;;6.49;82.45;100042.50;5044561;28;20029;-81
2021/03/15 10:19:28;;;;;;;1.90;1.23;;;;;;;6.40;82.30;100043.31;5048614;28;20037;-81
2021/03/15 10:21:54;;;;;;;1.70;1.20;;;;;;;6.47;83.63;100041.81;5055962;28;20031;-81
2021/03/15 10:24:38;;;;;;;2.30;1.40;;;;;;;6.59;82.38;100040.69;5040274;28;20045;-82
2021/03/15 10:27:05;;;;;;;3.00;1.60;;;;;;;6.78;82.15;100050.38;5057350;28;20029;-81
2021/03/15 10:29:32;;;;;;;2.17;1.42;;;;;;;6.92;79.68;100045.69;5057102;28;20116;-81
2021/03/15 10:32:02;;;;;;;2.88;1.80;;;;;;;7.00;78.93;100056.31;5043280;28;20052;-82
2021/03/15 10:34:28;;;;;;;3.15;1.77;;;;;;;7.01;79.25;100055.34;5052603;28;20502;-82
2021/03/15 10:36:55;;;;;;;3.13;1.65;;;;;;;6.91;78.71;100060.63;5053801;28;20037;-82
2021/03/15 10:39:22;;;;;;;3.50;1.60;;;;;;;6.77;80.29;100056.63;5055956;28;20047;-83
2021/03/15 10:41:48;;;;;;;2.17;1.10;;;;;;;6.74;79.36;100062.13;5051254;28;20502;-82
2021/03/15 10:44:16;;;;;;;2.25;1.20;;;;;;;6.68;79.38;100064.50;5060800;28;20063;-82
2021/03/15 10:46:54;;;;;;;1.30;0.90;;;;;;;6.53;81.08;100061.44;5059304;28;20036;-82
2021/03/15 10:49:25;;;;;;;2.13;0.95;;;;;;;6.37;80.56;100059.34;5053653;28;20497;-82
2021/03/15 10:51:53;;;;;;;1.13;0.93;;;;;;;6.32;80.41;100057.13;5056426;28;20159;-82
2021/03/15 10:54:35;;;;;;;2.47;1.10;;;;;;;6.43;80.90;100076.34;5050417;28;20053;-82
2021/03/15 10:57:17;;;;;;;1.92;1.10;;;;;;;6.42;79.80;100075.53;5068051;28;20048;-82
2021/03/15 10:59:44;;;;;;;2.00;1.10;;;;;;;6.46;78.69;100082.19;5043726;28;20286;-82
2021/03/15 11:02:10;;;;;;;1.88;1.20;;;;;;;6.57;76.02;100086.47;5060899;28;20040;-82
2021/03/15 11:04:37;;;;;;;3.15;1.20;;;;;;;6.63;75.95;100087.72;5057362;28;20037;-82
2021/03/15 11:07:25;;;;;;;3.65;1.20;;;;;;;6.66;76.35;100084.81;5057572;28;20449;-81
2021/03/15 11:09:55;;;;;;;2.75;1.30;;;;;;;6.71;75.15;100093.13;5047447;28;20041;-82
2021/03/15 11:12:52;;;;;;;1.70;1.20;;;;;;;6.59;76.79;100089.78;5058215;28;20090;-81
2021/03/15 11:15:36;;;;;;;2.15;1.38;;;;;;;6.55;77.29;100098.91;5039025;28;20037;-82
2021/03/15 11:18:03;;;;;;;3.22;1.60;;;;;;;6.49;75.00;100104.72;5043513;28;20414;-82
2021/03/15 11:20:41;;;;;;;1.85;1.38;;;;;;;6.44;75.15;100097.25;5044313;28;20094;-81
2021/03/15 11:23:07;;;;;;;2.17;1.40;;;;;;;6.27;75.34;100101.34;5059422;28;20071;-81
2021/03/15 11:25:33;;;;;;;2.58;1.70;;;;;;;6.37;74.53;100119.75;5057044;28;20040;-81
2021/03/15 11:28:06;;;;;;;2.38;1.60;;;;;;;6.36;73.67;100111.06;5053559;28;20029;-81
2021/03/15 11:30:32;;;;;;;2.03;1.60;;;;;;;6.24;74.77;100119.16;5057375;28;20056;-81
2021/03/15 11:33:03;;;;;;;2.55;1.70;;;;;;;6.44;72.75;100117.44;5057538;28;20037;-81
2021/03/15 11:35:29;;;;;;;2.10;1.25;;;;;;;6.40;74.44;100129.16;5047978;28;20104;-81
2021/03/15 11:37:57;;;;;;;3.95;1.77;;;;;;;6.49;72.77;100128.34;5050842;28;20053;-81
2021/03/15 11:40:37;;;;;;;3.60;1.77;;;;;;;6.63;70.29;100121.88;5050862;28;20040;-81
2021/03/15 11:43:04;;;;;;;4.43;1.60;;;;;;;6.61;70.29;100122.00;5051201;28;20507;-81
2021/03/15 11:45:29;;;;;;;2.63;1.60;;;;;;;6.58;69.27;100135.44;5051280;28;20033;-81
2021/03/15 11:47:55;;;;;;;3.00;1.80;;;;;;;6.42;70.22;100124.59;5041448;28;20110;-81